createdAt,value
2017-02-16T00:00:34.651Z,10.1
2017-02-16T00:01:34.611Z,9.93
2017-02-16T00:02:34.591Z,10
2017-02-16T00:03:33.807Z,10.1
2017-02-16T00:04:34.157Z,9.93
2017-02-16T00:05:34.576Z,10.07
2017-02-16T00:06:34.503Z,10.16
2017-02-16T00:07:34.119Z,10.15
2017-02-16T00:08:34.098Z,10.1
2017-02-16T00:09:34.075Z,10.07
2017-02-16T00:10:34.031Z,10.03
2017-02-16T00:11:34.026Z,10.13
2017-02-16T00:12:34.384Z,10.13
2017-02-16T00:13:34.015Z,10.16
2017-02-16T00:14:33.983Z,10.03
2017-02-16T00:15:34.347Z,9.97
2017-02-16T00:16:33.932Z,9.92
2017-02-16T00:17:34.387Z,10
2017-02-16T00:18:34.271Z,9.93
2017-02-16T00:19:33.881Z,9.93
2017-02-16T00:20:34.229Z,9.92
2017-02-16T00:21:33.808Z,9.89
2017-02-16T00:22:34.188Z,9.9
2017-02-16T00:23:34.168Z,9.98
2017-02-16T00:24:33.761Z,10
2017-02-16T00:25:34.137Z,10.01
2017-02-16T00:26:33.719Z,10.04
2017-02-16T00:27:34.134Z,10.03
2017-02-16T00:28:33.678Z,10.08
2017-02-16T00:29:34.138Z,10.05
2017-02-16T00:30:33.645Z,10.15
2017-02-16T00:31:33.696Z,10.15
2017-02-16T00:32:33.597Z,10.22
2017-02-16T00:33:33.563Z,10.21
2017-02-16T00:34:33.943Z,10.26
2017-02-16T00:35:33.915Z,10.3
2017-02-16T00:36:33.514Z,10.36
2017-02-16T00:37:33.603Z,10.34
2017-02-16T00:38:33.869Z,10.34
2017-02-16T00:39:33.920Z,10.29
2017-02-16T00:40:33.879Z,10.3
2017-02-16T00:41:33.434Z,10.29
2017-02-16T00:42:33.392Z,10.29
2017-02-16T00:43:32.999Z,10.34
2017-02-16T00:44:33.347Z,10.41
2017-02-16T00:45:33.739Z,10.4
2017-02-16T00:46:33.307Z,10.4
2017-02-16T00:47:33.684Z,10.57
2017-02-16T00:48:33.264Z,10.55
2017-02-16T00:49:33.261Z,10.48
2017-02-16T00:50:33.739Z,10.56
2017-02-16T00:51:32.815Z,10.53
2017-02-16T00:52:33.623Z,10.6
2017-02-16T00:53:32.765Z,10.66
2017-02-16T00:54:33.622Z,10.63
2017-02-16T00:55:33.135Z,10.66
2017-02-16T00:56:33.142Z,10.72
2017-02-16T00:57:33.081Z,10.66
2017-02-16T00:58:33.063Z,10.57
2017-02-16T00:59:33.039Z,10.55
2017-02-16T01:00:32.667Z,10.44
2017-02-16T01:01:33.426Z,10.34
2017-02-16T01:02:33.457Z,10.23
2017-02-16T01:03:33.047Z,10.18
2017-02-16T01:04:32.961Z,10.22
2017-02-16T01:05:33.354Z,10.21
2017-02-16T01:06:32.894Z,10.22
2017-02-16T01:07:33.364Z,10.19
2017-02-16T01:08:33.333Z,10.29
2017-02-16T01:09:32.865Z,10.36
2017-02-16T01:10:32.834Z,10.37
2017-02-16T01:11:32.403Z,10.29
2017-02-16T01:12:32.773Z,10.36
2017-02-16T01:13:33.202Z,10.28
2017-02-16T01:14:33.141Z,10.18
2017-02-16T01:15:33.109Z,10.15
2017-02-16T01:16:32.299Z,10.19
2017-02-16T01:17:32.781Z,10.28
2017-02-16T01:18:32.756Z,10.36
2017-02-16T01:19:33.026Z,10.41
2017-02-16T01:20:33.016Z,10.38
2017-02-16T01:21:32.977Z,10.43
2017-02-16T01:22:32.244Z,10.56
2017-02-16T01:23:32.546Z,10.56
2017-02-16T01:24:32.564Z,10.56
2017-02-16T01:25:32.525Z,10.47
2017-02-16T01:26:32.515Z,10.47
2017-02-16T01:27:32.094Z,10.57
2017-02-16T01:28:32.848Z,10.38
2017-02-16T01:29:32.428Z,10.38
2017-02-16T01:30:32.786Z,10.47
2017-02-16T01:31:32.402Z,10.46
2017-02-16T01:32:31.980Z,10.55
2017-02-16T01:33:32.400Z,10.47
2017-02-16T01:34:32.730Z,10.4
2017-02-16T01:35:32.708Z,10.41
2017-02-16T01:36:32.679Z,10.29
2017-02-16T01:37:32.289Z,10.3
2017-02-16T01:38:32.258Z,10.3
2017-02-16T01:39:32.628Z,10.33
2017-02-16T01:40:32.588Z,10.36
2017-02-16T01:41:32.184Z,10.41
2017-02-16T01:42:32.165Z,10.36
2017-02-16T01:43:32.141Z,10.41
2017-02-16T01:44:32.525Z,10.43
2017-02-16T01:45:32.515Z,10.57
2017-02-16T01:46:32.113Z,10.37
2017-02-16T01:47:32.514Z,10.43
2017-02-16T01:48:32.432Z,10.48
2017-02-16T01:49:32.050Z,10.57
2017-02-16T01:50:32.001Z,10.47
2017-02-16T01:51:32.391Z,10.52
2017-02-16T01:52:31.609Z,10.55
2017-02-16T01:53:31.939Z,10.52
2017-02-16T01:54:31.929Z,10.48
2017-02-16T01:55:31.909Z,10.56
2017-02-16T01:56:31.888Z,10.53
2017-02-16T01:57:31.930Z,10.59
2017-02-16T01:58:32.228Z,10.71
2017-02-16T01:59:32.203Z,10.75
2017-02-16T02:00:32.198Z,10.66
2017-02-16T02:01:31.782Z,10.82
2017-02-16T02:02:32.149Z,10.82
2017-02-16T02:03:31.412Z,10.84
2017-02-16T02:04:31.701Z,10.74
2017-02-16T02:05:31.693Z,10.69
2017-02-16T02:06:31.289Z,10.67
2017-02-16T02:07:32.056Z,10.6
2017-02-16T02:08:31.641Z,10.66
2017-02-16T02:09:31.620Z,10.74
2017-02-16T02:10:31.990Z,10.69
2017-02-16T02:11:31.974Z,10.69
2017-02-16T02:12:31.941Z,10.71
2017-02-16T02:13:31.909Z,10.8
2017-02-16T02:14:31.919Z,10.69
2017-02-16T02:15:31.886Z,10.63
2017-02-16T02:16:31.461Z,10.59
2017-02-16T02:17:31.836Z,10.56
2017-02-16T02:18:31.046Z,10.48
2017-02-16T02:19:31.840Z,10.48
2017-02-16T02:20:31.411Z,10.6
2017-02-16T02:21:31.056Z,10.63
2017-02-16T02:22:30.971Z,10.66
2017-02-16T02:23:31.723Z,10.67
2017-02-16T02:24:31.334Z,10.52
2017-02-16T02:25:30.922Z,10.56
2017-02-16T02:26:31.292Z,10.53
2017-02-16T02:27:31.260Z,10.56
2017-02-16T02:28:31.231Z,10.52
2017-02-16T02:29:31.602Z,10.59
2017-02-16T02:30:31.573Z,10.56
2017-02-16T02:31:31.249Z,10.53
2017-02-16T02:32:31.198Z,10.52
2017-02-16T02:33:31.128Z,10.53
2017-02-16T02:34:30.727Z,10.57
2017-02-16T02:35:31.100Z,10.47
2017-02-16T02:36:31.557Z,10.48
2017-02-16T02:37:31.425Z,10.55
2017-02-16T02:38:31.412Z,10.62
2017-02-16T02:39:30.630Z,10.69
2017-02-16T02:40:30.992Z,10.67
2017-02-16T02:41:30.998Z,10.66
2017-02-16T02:42:31.002Z,10.66
2017-02-16T02:43:30.542Z,10.63
2017-02-16T02:44:30.907Z,10.56
2017-02-16T02:45:30.506Z,10.67
2017-02-16T02:46:31.262Z,10.63
2017-02-16T02:47:31.241Z,10.48
2017-02-16T02:48:30.900Z,10.57
2017-02-16T02:49:30.819Z,10.53
2017-02-16T02:50:30.788Z,10.4
2017-02-16T02:51:30.758Z,10.44
2017-02-16T02:52:30.805Z,10.47
2017-02-16T02:53:30.734Z,10.3
2017-02-16T02:54:30.713Z,10.11
2017-02-16T02:55:31.046Z,10.05
2017-02-16T02:56:31.066Z,10.08
2017-02-16T02:57:30.254Z,9.93
2017-02-16T02:58:30.655Z,9.86
2017-02-16T02:59:30.613Z,9.87
2017-02-16T03:00:30.574Z,9.8
2017-02-16T03:01:30.551Z,9.87
2017-02-16T03:02:30.542Z,9.97
2017-02-16T03:03:30.903Z,9.89
2017-02-16T03:04:30.111Z,9.92
2017-02-16T03:05:30.481Z,10.13
2017-02-16T03:06:30.461Z,10.05
2017-02-16T03:07:30.052Z,9.87
2017-02-16T03:08:30.832Z,9.93
2017-02-16T03:09:30.782Z,9.93
2017-02-16T03:10:30.378Z,9.93
2017-02-16T03:11:30.358Z,9.92
2017-02-16T03:12:30.736Z,9.92
2017-02-16T03:13:30.316Z,9.93
2017-02-16T03:14:30.695Z,9.93
2017-02-16T03:15:30.657Z,10.03
2017-02-16T03:16:30.635Z,9.89
2017-02-16T03:17:30.215Z,9.86
2017-02-16T03:18:30.204Z,10.04
2017-02-16T03:19:30.195Z,10
2017-02-16T03:20:30.172Z,10.13
2017-02-16T03:21:30.138Z,10.16
2017-02-16T03:22:29.751Z,10.01
2017-02-16T03:23:30.112Z,9.97
2017-02-16T03:24:30.080Z,9.98
2017-02-16T03:25:29.670Z,9.98
2017-02-16T03:26:30.051Z,10.03
2017-02-16T03:27:30.019Z,10.05
2017-02-16T03:28:29.997Z,10.08
2017-02-16T03:29:29.976Z,9.89
2017-02-16T03:30:29.947Z,9.98
2017-02-16T03:31:29.934Z,9.93
2017-02-16T03:32:29.918Z,9.87
2017-02-16T03:33:29.892Z,9.93
2017-02-16T03:34:29.872Z,9.92
2017-02-16T03:35:29.864Z,9.93
2017-02-16T03:36:30.216Z,9.8
2017-02-16T03:37:29.466Z,9.9
2017-02-16T03:38:29.791Z,9.82
2017-02-16T03:39:29.761Z,9.87
2017-02-16T03:40:29.759Z,9.83
2017-02-16T03:41:29.448Z,9.68
2017-02-16T03:42:30.119Z,9.71
2017-02-16T03:43:30.076Z,9.67
2017-02-16T03:44:30.047Z,9.68
2017-02-16T03:45:29.254Z,9.71
2017-02-16T03:46:29.627Z,9.6
2017-02-16T03:47:29.984Z,9.46
2017-02-16T03:48:29.575Z,9.46
2017-02-16T03:49:29.966Z,9.38
2017-02-16T03:50:29.935Z,9.35
2017-02-16T03:51:29.525Z,9.35
2017-02-16T03:52:29.903Z,9.42
2017-02-16T03:53:29.482Z,9.35
2017-02-16T03:54:29.474Z,9.31
2017-02-16T03:55:29.871Z,9.31
2017-02-16T03:56:29.812Z,9.29
2017-02-16T03:57:29.791Z,9.37
2017-02-16T03:58:29.380Z,9.31
2017-02-16T03:59:29.338Z,9.37
2017-02-16T04:00:29.749Z,9.29
2017-02-16T04:01:29.707Z,9.31
2017-02-16T04:02:29.284Z,9.37
2017-02-16T04:03:29.268Z,9.32
2017-02-16T04:04:29.247Z,9.34
2017-02-16T04:05:29.236Z,9.35
2017-02-16T04:06:29.205Z,9.32
2017-02-16T04:07:29.176Z,9.37
2017-02-16T04:08:29.153Z,9.25
2017-02-16T04:09:29.151Z,9.42
2017-02-16T04:10:29.503Z,9.42
2017-02-16T04:11:29.500Z,9.42
2017-02-16T04:12:29.082Z,9.46
2017-02-16T04:13:28.768Z,9.45
2017-02-16T04:14:29.052Z,9.45
2017-02-16T04:15:29.020Z,9.52
2017-02-16T04:16:29.410Z,9.56
2017-02-16T04:17:29.364Z,9.43
2017-02-16T04:18:28.949Z,9.46
2017-02-16T04:19:29.327Z,9.46
2017-02-16T04:20:29.320Z,9.37
2017-02-16T04:21:29.288Z,9.42
2017-02-16T04:22:28.868Z,9.32
2017-02-16T04:23:28.849Z,9.29
2017-02-16T04:24:28.872Z,9.38
2017-02-16T04:25:28.435Z,9.35
2017-02-16T04:26:29.185Z,9.38
2017-02-16T04:27:29.153Z,9.47
2017-02-16T04:28:29.144Z,9.38
2017-02-16T04:29:29.122Z,9.28
2017-02-16T04:30:29.072Z,9.28
2017-02-16T04:31:28.672Z,9.34
2017-02-16T04:32:29.031Z,9.29
2017-02-16T04:33:28.621Z,9.29
2017-02-16T04:34:29.004Z,9.35
2017-02-16T04:35:29.002Z,9.42
2017-02-16T04:36:28.573Z,9.45
2017-02-16T04:37:28.567Z,9.42
2017-02-16T04:38:28.911Z,9.47
2017-02-16T04:39:28.898Z,9.32
2017-02-16T04:40:28.887Z,9.35
2017-02-16T04:41:28.859Z,9.29
2017-02-16T04:42:28.437Z,9.29
2017-02-16T04:43:28.423Z,9.38
2017-02-16T04:44:28.812Z,9.28
2017-02-16T04:45:28.382Z,9.31
2017-02-16T04:46:27.975Z,9.32
2017-02-16T04:47:28.351Z,9.29
2017-02-16T04:48:28.712Z,9.24
2017-02-16T04:49:28.669Z,9.13
2017-02-16T04:50:28.673Z,9.14
2017-02-16T04:51:28.651Z,9.02
2017-02-16T04:52:28.625Z,9.06
2017-02-16T04:53:28.232Z,8.98
2017-02-16T04:54:28.254Z,8.95
2017-02-16T04:55:28.561Z,9
2017-02-16T04:56:28.690Z,9.03
2017-02-16T04:57:28.511Z,8.97
2017-02-16T04:58:28.211Z,9.03
2017-02-16T04:59:27.702Z,9
2017-02-16T05:00:28.457Z,9.06
2017-02-16T05:01:28.437Z,9.06
2017-02-16T05:02:28.116Z,9.16
2017-02-16T05:03:27.605Z,9.17
2017-02-16T05:04:27.975Z,9.11
2017-02-16T05:05:27.954Z,9.09
2017-02-16T05:06:27.964Z,9.03
2017-02-16T05:07:27.937Z,9.02
2017-02-16T05:08:27.537Z,8.94
2017-02-16T05:09:27.478Z,9
2017-02-16T05:10:28.254Z,8.93
2017-02-16T05:11:27.839Z,8.88
2017-02-16T05:12:27.847Z,8.9
2017-02-16T05:13:27.783Z,9
2017-02-16T05:14:28.240Z,9.02
2017-02-16T05:15:28.120Z,9
2017-02-16T05:16:27.482Z,8.91
2017-02-16T05:17:28.071Z,8.94
2017-02-16T05:18:28.050Z,9.03
2017-02-16T05:19:27.655Z,9.06
2017-02-16T05:20:27.646Z,9.21
2017-02-16T05:21:28.017Z,9.16
2017-02-16T05:22:27.290Z,9.31
2017-02-16T05:23:28.005Z,9.35
2017-02-16T05:24:27.979Z,9.24
2017-02-16T05:25:27.524Z,9.29
2017-02-16T05:26:27.578Z,9.25
2017-02-16T05:27:27.885Z,9.19
2017-02-16T05:28:27.461Z,9.32
2017-02-16T05:29:27.080Z,9.38
2017-02-16T05:30:27.932Z,9.35
2017-02-16T05:31:27.796Z,9.34
2017-02-16T05:32:27.831Z,9.34
2017-02-16T05:33:27.781Z,9.34
2017-02-16T05:34:27.358Z,9.25
2017-02-16T05:35:27.401Z,9.31
2017-02-16T05:36:27.287Z,9.13
2017-02-16T05:37:27.668Z,8.95
2017-02-16T05:38:27.636Z,8.95
2017-02-16T05:39:27.270Z,8.9
2017-02-16T05:40:27.197Z,8.79
2017-02-16T05:41:27.577Z,8.79
2017-02-16T05:42:27.552Z,8.9
2017-02-16T05:43:27.135Z,8.88
2017-02-16T05:44:27.514Z,8.72
2017-02-16T05:45:27.514Z,8.76
2017-02-16T05:46:27.473Z,8.69
2017-02-16T05:47:26.684Z,8.65
2017-02-16T05:48:27.516Z,8.7
2017-02-16T05:49:27.401Z,8.42
2017-02-16T05:50:27.382Z,8.47
2017-02-16T05:51:27.390Z,8.47
2017-02-16T05:52:27.339Z,8.4
2017-02-16T05:53:27.013Z,8.32
2017-02-16T05:54:26.909Z,8.32
2017-02-16T05:55:26.888Z,8.29
2017-02-16T05:56:26.859Z,8.33
2017-02-16T05:57:27.240Z,8.36
2017-02-16T05:58:26.447Z,8.51
2017-02-16T05:59:26.818Z,8.65
2017-02-16T06:00:26.767Z,8.7
2017-02-16T06:01:27.146Z,8.59
2017-02-16T06:02:27.199Z,8.5
2017-02-16T06:03:26.724Z,8.4
2017-02-16T06:04:27.115Z,8.36
2017-02-16T06:05:27.056Z,8.24
2017-02-16T06:06:26.654Z,8.24
2017-02-16T06:07:26.612Z,8.3
2017-02-16T06:08:26.213Z,8.29
2017-02-16T06:09:26.985Z,8.43
2017-02-16T06:10:26.561Z,8.54
2017-02-16T06:11:26.533Z,8.54
2017-02-16T06:12:26.523Z,8.72
2017-02-16T06:13:26.091Z,8.8
2017-02-16T06:14:26.900Z,8.83
2017-02-16T06:15:26.883Z,8.87
2017-02-16T06:16:26.429Z,8.76
2017-02-16T06:17:26.796Z,8.73
2017-02-16T06:18:26.376Z,8.55
2017-02-16T06:19:25.978Z,8.55
2017-02-16T06:20:26.726Z,8.42
2017-02-16T06:21:26.305Z,8.37
2017-02-16T06:22:26.305Z,8.34
2017-02-16T06:23:26.284Z,8.22
2017-02-16T06:24:26.637Z,8.32
2017-02-16T06:25:26.223Z,8.27
2017-02-16T06:26:26.202Z,8.25
2017-02-16T06:27:26.575Z,8.43
2017-02-16T06:28:26.201Z,8.42
2017-02-16T06:29:26.550Z,8.45
2017-02-16T06:30:26.202Z,8.62
2017-02-16T06:31:26.479Z,8.67
2017-02-16T06:32:26.083Z,8.62
2017-02-16T06:33:26.439Z,8.67
2017-02-16T06:34:26.038Z,8.66
2017-02-16T06:35:26.397Z,8.65
2017-02-16T06:36:25.668Z,8.67
2017-02-16T06:37:26.351Z,8.52
2017-02-16T06:38:26.366Z,8.55
2017-02-16T06:39:25.565Z,8.55
2017-02-16T06:40:25.926Z,8.57
2017-02-16T06:41:26.280Z,8.51
2017-02-16T06:42:26.272Z,8.5
2017-02-16T06:43:26.224Z,8.48
2017-02-16T06:44:25.824Z,8.47
2017-02-16T06:45:25.783Z,8.52
2017-02-16T06:46:26.152Z,8.59
2017-02-16T06:47:25.742Z,8.54
2017-02-16T06:48:25.730Z,8.48
2017-02-16T06:49:25.331Z,8.43
2017-02-16T06:50:26.068Z,8.29
2017-02-16T06:51:26.049Z,8.15
2017-02-16T06:52:26.018Z,8.16
2017-02-16T06:53:25.228Z,8.14
2017-02-16T06:54:25.979Z,8.18
2017-02-16T06:55:25.979Z,8.21
2017-02-16T06:56:25.556Z,8.24
2017-02-16T06:57:25.614Z,8.12
2017-02-16T06:58:25.905Z,8.29
2017-02-16T06:59:25.505Z,8.33
2017-02-16T07:00:25.464Z,8.37
2017-02-16T07:01:25.536Z,8.42
2017-02-16T07:02:25.412Z,8.43
2017-02-16T07:03:25.448Z,8.59
2017-02-16T07:04:25.772Z,8.58
2017-02-16T07:05:25.756Z,8.42
2017-02-16T07:06:25.724Z,8.42
2017-02-16T07:07:25.416Z,8.47
2017-02-16T07:08:25.311Z,8.54
2017-02-16T07:09:25.270Z,8.77
2017-02-16T07:10:24.867Z,8.93
2017-02-16T07:11:24.829Z,9.29
2017-02-16T07:12:25.588Z,9.47
2017-02-16T07:13:25.578Z,9.52
2017-02-16T07:14:25.162Z,9.68
2017-02-16T07:15:25.241Z,9.95
2017-02-16T07:16:25.507Z,10.41
2017-02-16T07:17:24.720Z,10.48
2017-02-16T07:18:25.082Z,10.55
2017-02-16T07:19:25.083Z,10.16
2017-02-16T07:20:25.043Z,9.93
2017-02-16T07:21:25.414Z,9.74
2017-02-16T07:22:24.987Z,9.62
2017-02-16T07:23:24.972Z,9.72
2017-02-16T07:24:24.953Z,9.49
2017-02-16T07:25:25.335Z,9.89
2017-02-16T07:26:25.307Z,10.26
2017-02-16T07:27:24.894Z,10.38
2017-02-16T07:28:24.880Z,10.1
2017-02-16T07:29:25.249Z,10.26
2017-02-16T07:30:25.237Z,10.44
2017-02-16T07:31:25.210Z,11.06
2017-02-16T07:32:24.786Z,11.13
2017-02-16T07:33:25.153Z,11
2017-02-16T07:34:24.757Z,10.85
2017-02-16T07:35:24.747Z,10.77
2017-02-16T07:36:25.095Z,10.8
2017-02-16T07:37:25.075Z,10.71
2017-02-16T07:38:25.064Z,10.6
2017-02-16T07:39:25.035Z,10.6
2017-02-16T07:40:24.633Z,10.38
2017-02-16T07:41:25.018Z,10.33
2017-02-16T07:42:24.991Z,10.28
2017-02-16T07:43:24.593Z,10.28
2017-02-16T07:44:24.955Z,10.37
2017-02-16T07:45:24.562Z,10.16
2017-02-16T07:46:24.903Z,10.56
2017-02-16T07:47:24.885Z,10.66
2017-02-16T07:48:24.889Z,10.59
2017-02-16T07:49:24.846Z,10.93
2017-02-16T07:50:24.801Z,11.47
2017-02-16T07:51:24.797Z,11.51
2017-02-16T07:52:24.423Z,11.21
2017-02-16T07:53:24.768Z,11.14
2017-02-16T07:54:24.757Z,11.57
2017-02-16T07:55:24.336Z,11.86
2017-02-16T07:56:24.716Z,11.95
2017-02-16T07:57:24.319Z,12.5
2017-02-16T07:58:24.673Z,13.41
2017-02-16T07:59:23.877Z,12.65
2017-02-16T08:00:24.281Z,12.32
2017-02-16T08:01:24.241Z,11.83
2017-02-16T08:02:24.231Z,11.08
2017-02-16T08:03:24.190Z,10.34
2017-02-16T08:04:24.180Z,10.1
2017-02-16T08:05:24.170Z,10.13
2017-02-16T08:06:24.526Z,10.36
2017-02-16T08:07:24.132Z,10.48
2017-02-16T08:08:24.128Z,10.67
2017-02-16T08:09:24.485Z,10.84
2017-02-16T08:10:24.455Z,11
2017-02-16T08:11:24.457Z,11.05
2017-02-16T08:12:24.033Z,11.15
2017-02-16T08:13:24.406Z,11.1
2017-02-16T08:14:24.007Z,10.63
2017-02-16T08:15:24.385Z,10.33
2017-02-16T08:16:24.342Z,10.16
2017-02-16T08:17:24.334Z,10.04
2017-02-16T08:18:24.332Z,9.82
2017-02-16T08:19:23.524Z,9.72
2017-02-16T08:20:23.495Z,9.78
2017-02-16T08:21:23.855Z,9.54
2017-02-16T08:22:24.250Z,9.5
2017-02-16T08:23:23.830Z,9.67
2017-02-16T08:24:23.820Z,9.79
2017-02-16T08:25:24.176Z,9.86
2017-02-16T08:26:23.769Z,9.82
2017-02-16T08:27:23.770Z,9.75
2017-02-16T08:28:23.355Z,9.7
2017-02-16T08:29:24.097Z,9.54
2017-02-16T08:30:24.078Z,9.5
2017-02-16T08:31:23.685Z,9.43
2017-02-16T08:32:23.667Z,9.45
2017-02-16T08:33:24.034Z,9.31
2017-02-16T08:34:23.602Z,9.43
2017-02-16T08:35:23.973Z,9.31
2017-02-16T08:36:23.588Z,9.45
2017-02-16T08:37:23.563Z,9.6
2017-02-16T08:38:23.550Z,9.58
2017-02-16T08:39:23.902Z,9.56
2017-02-16T08:40:23.891Z,9.54
2017-02-16T08:41:23.486Z,9.45
2017-02-16T08:42:23.453Z,9.47
2017-02-16T08:43:23.824Z,9.47
2017-02-16T08:44:23.809Z,9.31
2017-02-16T08:45:23.788Z,9.34
2017-02-16T08:46:23.750Z,9.28
2017-02-16T08:47:23.460Z,9.29
2017-02-16T08:48:23.343Z,9.42
2017-02-16T08:49:23.703Z,9.56
2017-02-16T08:50:23.685Z,9.53
2017-02-16T08:51:23.674Z,9.71
2017-02-16T08:52:23.247Z,9.72
2017-02-16T08:53:23.609Z,9.92
2017-02-16T08:54:23.604Z,10.21
2017-02-16T08:55:23.304Z,10.33
2017-02-16T08:56:23.163Z,10.75
2017-02-16T08:57:23.534Z,11
2017-02-16T08:58:22.750Z,11.23
2017-02-16T08:59:22.738Z,11.36
2017-02-16T09:00:23.500Z,11.48
2017-02-16T09:01:23.459Z,12.21
2017-02-16T09:02:23.058Z,12.61
2017-02-16T09:03:22.640Z,12.79
2017-02-16T09:04:23.028Z,12.65
2017-02-16T09:05:23.007Z,13.04
2017-02-16T09:06:23.376Z,12.82
2017-02-16T09:07:22.577Z,13.33
2017-02-16T09:08:22.964Z,13.72
2017-02-16T09:09:23.324Z,12.97
2017-02-16T09:10:22.934Z,13.06
2017-02-16T09:11:22.901Z,13.45
2017-02-16T09:12:22.904Z,13.63
2017-02-16T09:13:23.267Z,13.72
2017-02-16T09:14:22.845Z,13.28
2017-02-16T09:15:22.875Z,12.98
2017-02-16T09:16:23.207Z,12.58
2017-02-16T09:17:23.196Z,12.86
2017-02-16T09:18:22.790Z,13.38
2017-02-16T09:19:22.760Z,13.74
2017-02-16T09:20:22.761Z,14.14
2017-02-16T09:21:23.153Z,13.53
2017-02-16T09:22:23.120Z,13.11
2017-02-16T09:23:23.110Z,13.25
2017-02-16T09:24:22.695Z,13.52
2017-02-16T09:25:22.697Z,13.23
2017-02-16T09:26:22.297Z,13.15
2017-02-16T09:27:22.646Z,13.38
2017-02-16T09:28:22.677Z,13.47
2017-02-16T09:29:22.654Z,13.59
2017-02-16T09:30:23.014Z,13.84
2017-02-16T09:31:22.603Z,13.85
2017-02-16T09:32:22.971Z,14.07
2017-02-16T09:33:22.961Z,14.2
2017-02-16T09:34:22.970Z,14.3
2017-02-16T09:35:22.946Z,13.95
2017-02-16T09:36:22.918Z,14.15
2017-02-16T09:37:22.520Z,14.32
2017-02-16T09:38:22.933Z,14.6
2017-02-16T09:39:22.882Z,14.51
2017-02-16T09:40:22.080Z,14.3
2017-02-16T09:41:22.849Z,13.8
2017-02-16T09:42:22.055Z,13.75
2017-02-16T09:43:22.822Z,14.05
2017-02-16T09:44:22.799Z,14.14
2017-02-16T09:45:22.416Z,14.33
2017-02-16T09:46:22.417Z,14.15
2017-02-16T09:47:22.756Z,13.7
2017-02-16T09:48:22.384Z,13.7
2017-02-16T09:49:22.746Z,13.16
2017-02-16T09:50:22.324Z,13.18
2017-02-16T09:51:22.696Z,13.15
2017-02-16T09:52:22.305Z,12.96
2017-02-16T09:53:22.292Z,13.03
2017-02-16T09:54:22.683Z,13.11
2017-02-16T09:55:22.672Z,13.06
2017-02-16T09:56:22.627Z,13.06
2017-02-16T09:57:22.240Z,13.22
2017-02-16T09:58:21.950Z,13.08
2017-02-16T09:59:22.188Z,13.28
2017-02-16T10:00:22.173Z,13.22
2017-02-16T10:01:21.795Z,13.22
2017-02-16T10:02:22.286Z,13.23
2017-02-16T10:03:22.564Z,13.41
2017-02-16T10:04:22.127Z,13.16
2017-02-16T10:05:22.485Z,13.4
2017-02-16T10:06:22.089Z,13.49
2017-02-16T10:07:22.465Z,13.11
2017-02-16T10:08:22.142Z,13.29
2017-02-16T10:09:22.054Z,13.4
2017-02-16T10:10:22.095Z,13.47
2017-02-16T10:11:21.995Z,13.19
2017-02-16T10:12:22.151Z,13.08
2017-02-16T10:13:21.981Z,13.18
2017-02-16T10:14:21.971Z,13.38
2017-02-16T10:15:21.944Z,13.59
2017-02-16T10:16:22.450Z,13.82
2017-02-16T10:17:22.319Z,13.53
2017-02-16T10:18:22.017Z,13.45
2017-02-16T10:19:21.871Z,13.26
2017-02-16T10:20:21.495Z,13.29
2017-02-16T10:21:21.846Z,13.01
2017-02-16T10:23:14.435Z,12.89
2017-02-16T10:23:24.728Z,12.88
2017-02-16T10:24:25.105Z,12.97
2017-02-16T10:25:24.718Z,12.97
2017-02-16T10:26:25.065Z,12.86
2017-02-16T10:27:25.063Z,12.98
2017-02-16T10:28:25.090Z,12.89
2017-02-16T10:29:25.039Z,12.71
2017-02-16T10:30:25.037Z,12.88
2017-02-16T10:31:24.982Z,12.76
2017-02-16T10:32:24.979Z,12.73
2017-02-16T10:33:24.940Z,12.53
2017-02-16T10:34:24.160Z,12.74
2017-02-16T10:35:24.539Z,12.5
2017-02-16T10:36:24.528Z,12.48
2017-02-16T10:37:24.497Z,12.57
2017-02-16T10:38:24.480Z,12.73
2017-02-16T10:39:24.858Z,12.79
2017-02-16T10:40:24.496Z,12.45
2017-02-16T10:41:24.427Z,12.53
2017-02-16T10:42:24.119Z,12.35
2017-02-16T10:43:24.385Z,12.31
2017-02-16T10:44:24.386Z,12.34
2017-02-16T10:45:24.752Z,12.2
2017-02-16T10:46:23.960Z,12.45
2017-02-16T10:47:24.323Z,12.53
2017-02-16T10:48:24.683Z,12.61
2017-02-16T10:49:24.682Z,12.58
2017-02-16T10:50:24.301Z,12.55
2017-02-16T10:51:23.861Z,12.65
2017-02-16T10:52:24.664Z,12.94
2017-02-16T10:53:24.218Z,12.78
2017-02-16T10:54:23.810Z,12.83
2017-02-16T10:55:23.798Z,12.88
2017-02-16T10:56:24.550Z,12.79
2017-02-16T10:57:24.148Z,13.04
2017-02-16T10:58:24.578Z,13.26
2017-02-16T10:59:24.497Z,13.42
2017-02-16T11:00:24.595Z,13.26
2017-02-16T11:01:24.470Z,13.45
2017-02-16T11:02:24.524Z,13.16
2017-02-16T11:03:24.035Z,13.25
2017-02-16T11:04:24.029Z,13.22
2017-02-16T11:05:24.391Z,13.28
2017-02-16T11:06:24.428Z,13.41
2017-02-16T11:07:24.352Z,13.65
2017-02-16T11:08:24.002Z,13.77
2017-02-16T11:09:24.318Z,13.78
2017-02-16T11:10:24.412Z,13.74
2017-02-16T11:11:24.359Z,13.66
2017-02-16T11:12:23.980Z,13.62
2017-02-16T11:13:23.876Z,13.18
2017-02-16T11:14:24.254Z,13.35
2017-02-16T11:15:24.218Z,13.37
2017-02-16T11:16:23.868Z,13.23
2017-02-16T11:17:24.191Z,13.21
2017-02-16T11:18:23.846Z,13.16
2017-02-16T11:19:23.746Z,13.14
2017-02-16T11:20:23.396Z,13.07
2017-02-16T11:21:23.354Z,13.07
2017-02-16T11:22:24.106Z,13.21
2017-02-16T11:23:24.084Z,13.16
2017-02-16T11:24:24.066Z,13.28
2017-02-16T11:25:23.660Z,13.41
2017-02-16T11:26:23.262Z,13.45
2017-02-16T11:27:23.623Z,13.23
2017-02-16T11:28:24.000Z,13.04
2017-02-16T11:29:23.590Z,13.11
2017-02-16T11:30:23.565Z,13.18
2017-02-16T11:31:23.972Z,13.07
2017-02-16T11:32:23.549Z,13.44
2017-02-16T11:33:23.949Z,13.65
2017-02-16T11:34:23.879Z,13.31
2017-02-16T11:35:23.492Z,13.55
2017-02-16T11:36:23.855Z,13.16
2017-02-16T11:37:23.834Z,12.85
2017-02-16T11:38:23.435Z,12.98
2017-02-16T11:39:23.817Z,13.11
2017-02-16T11:40:23.795Z,13.11
2017-02-16T11:41:23.769Z,13.1
2017-02-16T11:42:23.362Z,12.98
2017-02-16T11:43:23.722Z,13.18
2017-02-16T11:44:23.311Z,13.08
2017-02-16T11:45:23.707Z,13
2017-02-16T11:46:23.689Z,13
2017-02-16T11:47:22.885Z,12.92
2017-02-16T11:48:23.633Z,13.19
2017-02-16T11:49:23.233Z,13.33
2017-02-16T11:50:23.214Z,13.49
2017-02-16T11:51:22.810Z,13.57
2017-02-16T11:52:22.821Z,13.78
2017-02-16T11:53:23.171Z,13.81
2017-02-16T11:54:23.557Z,13.74
2017-02-16T11:55:23.527Z,13.7
2017-02-16T11:56:23.490Z,13.49
2017-02-16T11:57:23.099Z,13.7
2017-02-16T11:58:22.701Z,13.45
2017-02-16T11:59:23.455Z,13.19
2017-02-16T12:00:23.046Z,13.55
2017-02-16T12:01:23.437Z,13.63
2017-02-16T12:02:23.020Z,13.42
2017-02-16T12:03:22.993Z,13.53
2017-02-16T12:04:23.396Z,13.26
2017-02-16T12:05:22.571Z,13.47
2017-02-16T12:06:22.961Z,13.74
2017-02-16T12:07:23.294Z,13.63
2017-02-16T12:08:22.961Z,13.71
2017-02-16T12:09:23.271Z,13.74
2017-02-16T12:10:22.873Z,13.8
2017-02-16T12:11:22.848Z,13.96
2017-02-16T12:12:23.227Z,13.95
2017-02-16T12:13:23.208Z,13.75
2017-02-16T12:14:22.807Z,13.55
2017-02-16T12:15:22.766Z,13.74
2017-02-16T12:16:22.769Z,13.38
2017-02-16T12:17:23.135Z,13.33
2017-02-16T12:18:23.112Z,13.22
2017-02-16T12:19:22.334Z,13.26
2017-02-16T12:20:23.074Z,13.55
2017-02-16T12:21:22.692Z,13.62
2017-02-16T12:22:22.271Z,13.19
2017-02-16T12:23:23.027Z,13.49
2017-02-16T12:24:22.635Z,13.57
2017-02-16T12:25:22.600Z,13.84
2017-02-16T12:26:22.587Z,13.92
2017-02-16T12:27:22.200Z,14.03
2017-02-16T12:28:22.949Z,13.85
2017-02-16T12:29:22.541Z,13.78
2017-02-16T12:30:22.528Z,13.77
2017-02-16T12:31:22.900Z,13.63
2017-02-16T12:32:22.487Z,13.22
2017-02-16T12:33:22.878Z,13.26
2017-02-16T12:34:22.835Z,13.22
2017-02-16T12:35:22.425Z,13.26
2017-02-16T12:36:22.823Z,13.38
2017-02-16T12:37:22.784Z,13.59
2017-02-16T12:38:22.378Z,13.75
2017-02-16T12:39:21.997Z,13.93
2017-02-16T12:40:22.352Z,13.99
2017-02-16T12:41:22.702Z,13.65
2017-02-16T12:42:22.313Z,13.78
2017-02-16T12:43:22.300Z,13.65
2017-02-16T12:44:22.299Z,13.82
2017-02-16T12:45:22.649Z,13.63
2017-02-16T12:46:22.670Z,13.82
2017-02-16T12:47:22.640Z,13.88
2017-02-16T12:48:22.594Z,14
2017-02-16T12:49:22.591Z,14.2
2017-02-16T12:50:22.568Z,14.15
2017-02-16T12:51:22.549Z,14.33
2017-02-16T12:52:21.754Z,14.46
2017-02-16T12:53:22.505Z,14.38
2017-02-16T12:54:21.718Z,14.4
2017-02-16T12:55:22.494Z,14.22
2017-02-16T12:56:22.077Z,14.25
2017-02-16T12:57:22.064Z,14.57
2017-02-16T12:58:22.042Z,15.1
2017-02-16T12:59:22.414Z,15.09
2017-02-16T13:00:22.861Z,14.88
2017-02-16T13:01:22.391Z,14.98
2017-02-16T13:02:22.370Z,15.07
2017-02-16T13:03:21.960Z,15.13
2017-02-16T13:04:21.976Z,15.07
2017-02-16T13:05:21.941Z,14.5